メインページ
METAR-TAF:

METAR-TAF

空港 :

ブリュッセル空港

ブリュッセル, ベルギー

緯度: 50-54N, 経度: 004-32E, 海抜: 55m

現時点の気象観測

当レポートは16分前の11:20(UTC)に作成
南西の風 13kt
気温 7°C
湿度 70%
気圧 993 hPa
視程10km以上
1,500メートル以下は雲なし、積乱雲なし

METAR: EBBR 141120Z 23013KT CAVOK 07/02 Q0993 TEMPO 25020G30KT 4000 SHRA

時間: 12:36 (11:36 UTC)

予報

当レポートは6時間36分前の05:00(UTC)に作成
予報は14日の 06時(UTC)から 15日の 12時(UTC)まで有効
西/南西の風 15kt、最大25ktの突風を伴う
高度2000ftの雲はほとんどない, 塔状積雲.
高度4000ftの雲は散在している
確率 30% :
14日の 11時(UTC)から 14日の 14時(UTC)まで一時的に
西/南西の風 22kt、最大35ktの突風を伴う
視程: 4000m
にわか雨
14日の 18時(UTC)から 14日の 20時(UTC)まで徐々に
の風 10kt
14日の 23時(UTC)から 15日の 01時(UTC)まで徐々に
西/南西の風 20kt、最大35ktの突風を伴う
15日の 02時(UTC)から 15日の 07時(UTC)まで一時的に
西/南西の風 25kt、最大40ktの突風を伴う
視程: 4000m
高度1400ftの千切れ雲あり
雨, にわか雨

TAF: EBBR 140500Z 1406/1512 25015G25KT FEW020TCU SCT040 PROB30 TEMPO 1411/1414 25022G35KT 4000 SHRA BECMG 1418/1420 19010KT BECMG 1423/1501 24020G35KT TEMPO 1502/1507 24025G40KT 4000 RA SHRA BKN014

4,000以上の空港の気象観測と天気予報(METAR報とTAF報)

利用可能な観測所は地図上に黄色い丸と赤い丸で示す。

丸の上にカーソルを重ねると観測所名を参照できる。

次にクリックすると気象観測と天気予報を参照できる。

マップの切り替え:黒色「×」印の緑ボタンをクリックして拡大、「-」印の緑ボタンをクリックして縮小、緑色の三角印をクリックして隣りの地図に切り替え


METAR-TAF: